createdAt,value
2018-02-24T00:01:15.176Z,22.73
2018-02-24T00:03:44.287Z,25.30
2018-02-24T00:06:14.184Z,21.77
2018-02-24T00:08:43.518Z,22.73
2018-02-24T00:11:13.369Z,22.43
2018-02-24T00:13:42.465Z,21.50
2018-02-24T00:16:11.582Z,23.20
2018-02-24T00:18:40.690Z,24.60
2018-02-24T00:21:09.781Z,23.63
2018-02-24T00:23:38.900Z,22.47
2018-02-24T00:26:08.761Z,22.00
2018-02-24T00:28:37.881Z,21.20
2018-02-24T00:31:06.996Z,22.30
2018-02-24T00:33:36.863Z,22.93
2018-02-24T00:36:05.975Z,22.60
2018-02-24T00:38:35.076Z,22.07
2018-02-24T00:41:04.202Z,22.07
2018-02-24T00:43:33.291Z,21.80
2018-02-24T00:46:03.171Z,21.80
2018-02-24T00:48:32.254Z,22.60
2018-02-24T00:51:01.379Z,21.70
2018-02-24T00:53:30.495Z,22.30
2018-02-24T00:55:59.599Z,22.73
2018-02-24T00:58:29.457Z,22.83
2018-02-24T01:00:58.578Z,22.87
2018-02-24T01:03:27.701Z,22.70
2018-02-24T01:05:57.502Z,20.20
2018-02-24T01:08:26.613Z,21.93
2018-02-24T01:10:56.495Z,22.37
2018-02-24T01:13:26.355Z,22.90
2018-02-24T01:15:55.486Z,22.43
2018-02-24T01:18:24.598Z,23.73
2018-02-24T01:20:54.483Z,23.43
2018-02-24T01:23:23.594Z,22.10
2018-02-24T01:25:52.725Z,22.70
2018-02-24T01:28:21.828Z,22.23
2018-02-24T01:30:51.709Z,21.67
2018-02-24T01:33:20.801Z,24.97
2018-02-24T01:35:51.046Z,22.10
2018-02-24T01:38:20.159Z,22.77
2018-02-24T01:40:50.162Z,22.20
2018-02-24T01:43:19.275Z,21.63
2018-02-24T01:45:49.152Z,23.10
2018-02-24T01:48:18.313Z,23.67
2018-02-24T01:50:47.417Z,21.80
2018-02-24T01:53:16.537Z,22.40
2018-02-24T01:55:45.638Z,21.37
2018-02-24T01:58:15.525Z,22.43
2018-02-24T02:00:45.155Z,24.43
2018-02-24T02:03:14.245Z,24.00
2018-02-24T02:05:43.391Z,22.33
2018-02-24T02:08:12.495Z,23.20
2018-02-24T02:10:42.363Z,23.27
2018-02-24T02:13:11.485Z,23.40
2018-02-24T02:15:40.654Z,20.80
2018-02-24T02:18:09.754Z,21.10
2018-02-24T02:20:38.872Z,24.77
2018-02-24T02:23:07.987Z,23.80
2018-02-24T02:25:37.102Z,22.50
2018-02-24T02:28:06.233Z,21.80
2018-02-24T02:30:35.343Z,21.30
2018-02-24T02:33:04.458Z,22.17
2018-02-24T02:35:33.543Z,22.67
2018-02-24T02:38:02.663Z,22.23
2018-02-24T02:40:32.574Z,23.57
2018-02-24T02:43:01.665Z,22.00
2018-02-24T02:45:30.773Z,23.47
2018-02-24T02:48:00.641Z,22.80
2018-02-24T02:50:30.505Z,23.80
2018-02-24T02:53:00.385Z,23.90
2018-02-24T02:55:29.479Z,23.30
2018-02-24T02:58:02.811Z,22.20
2018-02-24T03:00:32.671Z,22.07
2018-02-24T03:03:01.789Z,25.73
2018-02-24T03:05:30.872Z,22.60
2018-02-24T03:07:59.995Z,26.90
2018-02-24T03:10:30.559Z,23.33
2018-02-24T03:12:59.661Z,23.57
2018-02-24T03:15:28.759Z,24.07
2018-02-24T03:17:57.869Z,23.73
2018-02-24T03:20:26.974Z,24.40
2018-02-24T03:22:56.086Z,23.33
2018-02-24T03:25:25.944Z,24.00
2018-02-24T03:27:55.059Z,24.67
2018-02-24T03:30:25.171Z,23.50
2018-02-24T03:32:54.281Z,23.43
2018-02-24T03:35:23.366Z,26.10
2018-02-24T03:37:52.487Z,25.67
2018-02-24T03:40:21.600Z,24.83
2018-02-24T03:42:50.673Z,24.30
2018-02-24T03:45:19.928Z,24.50
2018-02-24T03:47:49.025Z,26.97
2018-02-24T03:50:18.897Z,25.53
2018-02-24T03:52:48.815Z,22.27
2018-02-24T03:55:18.954Z,26.03
2018-02-24T03:57:48.081Z,25.30
2018-02-24T04:00:18.675Z,25.80
2018-02-24T04:02:47.774Z,26.70
2018-02-24T04:05:16.894Z,26.13
2018-02-24T04:07:47.366Z,24.63
2018-02-24T04:10:16.467Z,26.57
2018-02-24T04:12:45.582Z,27.60
2018-02-24T04:15:14.683Z,27.53
2018-02-24T04:17:43.799Z,24.43
2018-02-24T04:20:13.801Z,25.60
2018-02-24T04:22:42.927Z,24.67
2018-02-24T04:25:12.795Z,25.87
2018-02-24T04:27:41.871Z,27.93
2018-02-24T04:30:10.995Z,26.20
2018-02-24T04:32:40.097Z,26.67
2018-02-24T04:35:09.254Z,25.80
2018-02-24T04:37:38.332Z,26.50
2018-02-24T04:40:07.457Z,25.27
2018-02-24T04:42:36.562Z,26.23
2018-02-24T04:45:05.678Z,23.97
2018-02-24T04:47:34.792Z,25.60
2018-02-24T04:50:04.690Z,26.60
2018-02-24T04:52:35.299Z,25.67
2018-02-24T04:55:04.423Z,26.43
2018-02-24T04:57:33.524Z,23.97
2018-02-24T05:00:02.646Z,25.87
2018-02-24T05:02:31.757Z,24.20
2018-02-24T05:05:00.873Z,25.57
2018-02-24T05:07:30.953Z,25.90
2018-02-24T05:10:00.842Z,25.47
2018-02-24T05:12:29.953Z,26.23
2018-02-24T05:14:59.842Z,27.83
2018-02-24T05:17:29.654Z,26.50
2018-02-24T05:19:58.805Z,28.17
2018-02-24T05:22:27.895Z,25.70
2018-02-24T05:24:58.767Z,28.53
2018-02-24T05:27:27.898Z,27.20
2018-02-24T05:29:57.777Z,27.23
2018-02-24T05:32:26.905Z,28.60
2018-02-24T05:34:56.777Z,27.40
2018-02-24T05:37:27.565Z,28.33
2018-02-24T05:39:57.454Z,28.60
2018-02-24T05:42:26.554Z,27.77
2018-02-24T05:44:55.679Z,29.70
2018-02-24T05:47:25.546Z,27.70
2018-02-24T05:49:54.696Z,27.67
2018-02-24T05:52:24.547Z,27.90
2018-02-24T05:54:53.682Z,27.83
2018-02-24T05:57:22.806Z,30.20
2018-02-24T05:59:51.922Z,26.63
2018-02-24T06:02:21.061Z,28.83
2018-02-24T06:04:50.183Z,28.07
2018-02-24T06:07:20.054Z,28.30
2018-02-24T06:09:49.174Z,27.20
2018-02-24T06:12:18.303Z,28.10
2018-02-24T06:14:48.223Z,27.43
2018-02-24T06:17:17.323Z,28.40
2018-02-24T06:19:46.445Z,27.23
2018-02-24T06:22:15.561Z,29.17
2018-02-24T06:24:44.673Z,28.70
2018-02-24T06:27:13.790Z,26.50
2018-02-24T06:29:43.679Z,27.00
2018-02-24T06:32:12.806Z,27.83
2018-02-24T06:34:42.681Z,26.60
2018-02-24T06:37:12.703Z,28.27
2018-02-24T06:39:41.821Z,26.97
2018-02-24T06:42:10.941Z,31.70
2018-02-24T06:44:40.038Z,28.27
2018-02-24T06:47:09.148Z,28.23
2018-02-24T06:49:38.262Z,29.30
2018-02-24T06:52:08.147Z,27.60
2018-02-24T06:54:37.282Z,27.03
2018-02-24T06:57:06.407Z,27.77
2018-02-24T06:59:35.499Z,28.90
2018-02-24T07:02:05.404Z,28.57
2018-02-24T07:04:34.556Z,27.20
2018-02-24T07:07:03.692Z,29.10
2018-02-24T07:09:32.793Z,30.20
2018-02-24T07:12:01.927Z,31.00
2018-02-24T07:14:31.102Z,29.23
2018-02-24T07:17:00.211Z,28.00
2018-02-24T07:19:30.077Z,28.93
2018-02-24T07:21:59.200Z,30.27
2018-02-24T07:24:30.345Z,28.70
2018-02-24T07:26:59.469Z,28.37
2018-02-24T07:29:28.594Z,31.20
2018-02-24T07:31:58.636Z,30.47
2018-02-24T07:34:27.762Z,29.57
2018-02-24T07:36:56.882Z,27.60
2018-02-24T07:39:26.028Z,27.63
2018-02-24T07:41:55.168Z,27.57
2018-02-24T07:44:25.050Z,28.50
2018-02-24T07:46:54.201Z,28.20
2018-02-24T07:49:23.317Z,27.80
2018-02-24T07:51:52.439Z,28.43
2018-02-24T07:54:21.547Z,27.40
2018-02-24T07:56:51.441Z,27.40
2018-02-24T07:59:20.573Z,27.53
2018-02-24T08:01:50.468Z,28.33
2018-02-24T08:04:19.599Z,28.13
2018-02-24T08:06:49.463Z,25.70
2018-02-24T08:09:18.579Z,28.10
2018-02-24T08:11:47.686Z,27.87
2018-02-24T08:14:17.838Z,27.17
2018-02-24T08:16:46.954Z,28.80
2018-02-24T08:19:16.070Z,26.30
2018-02-24T08:21:45.188Z,27.27
2018-02-24T08:24:14.328Z,28.53
2018-02-24T08:26:44.203Z,28.23
2018-02-24T08:29:13.310Z,27.07
2018-02-24T08:31:44.134Z,27.33
2018-02-24T08:34:13.266Z,27.40
2018-02-24T08:36:42.372Z,27.87
2018-02-24T08:39:11.475Z,26.33
2018-02-24T08:41:40.585Z,27.80
2018-02-24T08:44:09.723Z,27.67
2018-02-24T08:46:39.598Z,26.90
2018-02-24T08:49:08.735Z,27.57
2018-02-24T08:51:38.629Z,29.67
2018-02-24T08:54:07.763Z,27.27
2018-02-24T08:56:36.862Z,25.40
2018-02-24T08:59:05.995Z,27.67
2018-02-24T09:01:35.109Z,27.67
2018-02-24T09:04:04.217Z,27.37
2018-02-24T09:06:33.321Z,28.80
2018-02-24T09:09:03.210Z,28.97
2018-02-24T09:11:32.324Z,28.30
2018-02-24T09:14:01.451Z,24.90
2018-02-24T09:16:31.317Z,24.13
2018-02-24T09:19:00.431Z,25.07
2018-02-24T09:21:29.561Z,25.13
2018-02-24T09:23:59.434Z,24.77
2018-02-24T09:26:28.573Z,25.73
2018-02-24T09:28:57.661Z,26.27
2018-02-24T09:31:27.578Z,25.13
2018-02-24T09:33:57.426Z,26.60
2018-02-24T09:36:27.456Z,26.03
2018-02-24T09:38:57.394Z,24.87
2018-02-24T09:41:26.521Z,26.17
2018-02-24T09:43:55.618Z,26.73
2018-02-24T09:46:25.507Z,24.23
2018-02-24T09:48:54.612Z,25.93
2018-02-24T09:51:23.760Z,25.53
2018-02-24T09:53:52.867Z,23.00
2018-02-24T09:56:21.975Z,23.33
2018-02-24T09:58:51.111Z,24.73
2018-02-24T10:01:21.996Z,25.40
2018-02-24T10:03:51.142Z,24.20
2018-02-24T10:06:21.485Z,24.17
2018-02-24T10:08:51.225Z,23.40
2018-02-24T10:11:21.117Z,23.47
2018-02-24T10:13:50.220Z,24.87
2018-02-24T10:16:19.326Z,22.17
2018-02-24T10:18:48.499Z,24.30
2018-02-24T10:21:17.603Z,23.40
2018-02-24T10:23:46.744Z,22.97
2018-02-24T10:26:15.871Z,22.90
2018-02-24T10:28:45.902Z,22.00
2018-02-24T10:31:15.023Z,23.33
2018-02-24T10:33:44.152Z,21.83
2018-02-24T10:36:14.055Z,21.20
2018-02-24T10:38:43.166Z,22.27
2018-02-24T10:41:12.285Z,21.70
2018-02-24T10:43:41.394Z,20.47
2018-02-24T10:46:10.524Z,21.90
2018-02-24T10:48:39.598Z,22.50
2018-02-24T10:51:08.738Z,21.70
2018-02-24T10:53:38.606Z,21.70
2018-02-24T10:56:07.715Z,21.50
2018-02-24T10:58:37.577Z,20.70
2018-02-24T11:01:07.463Z,21.27
2018-02-24T11:03:36.575Z,21.77
2018-02-24T11:06:15.592Z,19.10
2018-02-24T11:08:45.473Z,20.33
2018-02-24T11:11:14.601Z,20.57
2018-02-24T11:13:43.717Z,22.47
2018-02-24T11:16:13.614Z,20.50
2018-02-24T11:18:43.510Z,22.03
2018-02-24T11:21:12.647Z,21.40
2018-02-24T11:23:42.496Z,20.90
2018-02-24T11:26:11.641Z,20.13
2018-02-24T11:28:40.730Z,19.30
2018-02-24T11:31:10.606Z,22.30
2018-02-24T11:33:39.730Z,22.07
2018-02-24T11:36:10.006Z,19.27
2018-02-24T11:38:39.114Z,20.70
2018-02-24T11:41:08.203Z,20.77
2018-02-24T11:43:37.337Z,21.77
2018-02-24T11:46:06.455Z,21.73
2018-02-24T11:48:36.355Z,20.00
2018-02-24T11:51:05.466Z,18.83
2018-02-24T11:53:35.322Z,19.00
2018-02-24T11:56:04.441Z,17.70
2018-02-24T11:58:33.558Z,18.80
2018-02-24T12:01:03.262Z,19.17
2018-02-24T12:03:32.419Z,18.33
2018-02-24T12:06:01.565Z,17.90
2018-02-24T12:08:31.454Z,19.37
2018-02-24T12:11:00.578Z,18.60
2018-02-24T12:13:29.725Z,19.70
2018-02-24T12:15:58.840Z,19.10
2018-02-24T12:18:27.934Z,19.53
2018-02-24T12:20:57.072Z,16.93
2018-02-24T12:23:26.161Z,17.90
2018-02-24T12:25:56.043Z,18.70
2018-02-24T12:28:25.133Z,16.00
2018-02-24T12:30:54.289Z,16.00
2018-02-24T12:33:25.032Z,17.67
2018-02-24T12:35:54.901Z,16.00
2018-02-24T12:38:24.015Z,17.60
2018-02-24T12:40:53.144Z,19.10
2018-02-24T12:43:22.241Z,20.47
2018-02-24T12:45:51.413Z,18.83
2018-02-24T12:48:20.521Z,19.37
2018-02-24T12:50:50.414Z,19.13
2018-02-24T12:53:20.316Z,17.10
2018-02-24T12:55:49.437Z,16.20
2018-02-24T12:58:19.315Z,20.33
2018-02-24T13:00:48.410Z,18.63
2018-02-24T13:03:17.537Z,16.07
2018-02-24T13:05:47.407Z,18.63
2018-02-24T13:08:16.543Z,18.07
2018-02-24T13:10:45.621Z,17.50
2018-02-24T13:13:14.785Z,17.77
2018-02-24T13:15:43.878Z,17.00
2018-02-24T13:18:12.968Z,15.40
2018-02-24T13:20:42.105Z,16.77
2018-02-24T13:23:11.216Z,17.37
2018-02-24T13:25:40.329Z,16.53
2018-02-24T13:28:10.203Z,18.30
2018-02-24T13:30:40.091Z,18.13
2018-02-24T13:33:09.208Z,17.27
2018-02-24T13:35:38.361Z,15.63
2018-02-24T13:38:08.220Z,16.50
2018-02-24T13:40:38.106Z,16.40
2018-02-24T13:43:07.227Z,16.50
2018-02-24T13:45:36.348Z,15.00
2018-02-24T13:48:05.500Z,16.90
2018-02-24T13:50:34.621Z,14.40
2018-02-24T13:53:03.724Z,13.87
2018-02-24T13:55:32.866Z,14.07
2018-02-24T13:58:02.741Z,14.60
2018-02-24T14:00:31.863Z,14.13
2018-02-24T14:03:01.750Z,15.37
2018-02-24T14:05:30.941Z,12.10
2018-02-24T14:08:00.050Z,13.50
2018-02-24T14:10:29.137Z,13.70
2018-02-24T14:12:58.264Z,12.43
2018-02-24T14:15:28.152Z,14.63
2018-02-24T14:17:57.289Z,10.93
2018-02-24T14:20:27.178Z,12.50
2018-02-24T14:22:56.285Z,11.30
2018-02-24T14:25:25.394Z,13.40
2018-02-24T14:27:55.283Z,13.20
2018-02-24T14:30:24.398Z,12.83
2018-02-24T14:32:54.258Z,12.93
2018-02-24T14:35:27.103Z,14.07
2018-02-24T14:37:56.972Z,13.03
2018-02-24T14:40:26.107Z,13.87
2018-02-24T14:42:55.986Z,13.53
2018-02-24T14:45:25.095Z,11.60
2018-02-24T14:47:54.862Z,13.10
2018-02-24T14:50:23.969Z,12.13
2018-02-24T14:52:53.099Z,14.23
2018-02-24T14:55:22.224Z,12.00
2018-02-24T14:57:52.149Z,12.73
2018-02-24T15:00:21.300Z,13.40
2018-02-24T15:02:50.452Z,13.67
2018-02-24T15:05:19.549Z,14.83
2018-02-24T15:07:49.235Z,11.50
2018-02-24T15:10:19.133Z,11.67
2018-02-24T15:12:48.260Z,12.70
2018-02-24T15:15:17.436Z,13.13
2018-02-24T15:17:46.574Z,11.27
2018-02-24T15:20:15.757Z,13.03
2018-02-24T15:22:44.947Z,12.80
2018-02-24T15:25:14.066Z,12.80
2018-02-24T15:27:43.715Z,13.17
2018-02-24T15:30:12.884Z,11.43
2018-02-24T15:32:42.023Z,12.37
2018-02-24T15:35:12.678Z,12.67
2018-02-24T15:37:42.579Z,12.53
2018-02-24T15:40:13.566Z,11.00
2018-02-24T15:42:42.690Z,11.50
2018-02-24T15:45:11.795Z,9.67
2018-02-24T15:47:40.933Z,9.90
2018-02-24T15:50:10.061Z,9.83
2018-02-24T15:52:39.185Z,9.10
2018-02-24T15:55:08.290Z,10.50
2018-02-24T15:57:38.175Z,9.73
2018-02-24T16:00:07.280Z,8.90
2018-02-24T16:02:37.128Z,9.83
2018-02-24T16:05:07.007Z,8.93
2018-02-24T16:07:36.185Z,8.57
2018-02-24T16:10:05.306Z,8.50
2018-02-24T16:12:34.393Z,9.77
2018-02-24T16:15:03.532Z,8.40
2018-02-24T16:17:32.646Z,9.87
2018-02-24T16:20:01.758Z,9.47
2018-02-24T16:22:30.891Z,11.20
2018-02-24T16:25:00.016Z,9.97
2018-02-24T16:27:29.896Z,9.80
2018-02-24T16:29:59.021Z,8.40
2018-02-24T16:32:28.904Z,9.97
2018-02-24T16:34:58.036Z,10.07
2018-02-24T16:37:27.922Z,9.67
2018-02-24T16:39:57.054Z,11.03
2018-02-24T16:42:26.930Z,11.43
2018-02-24T16:44:56.229Z,10.40
2018-02-24T16:47:25.326Z,9.83
2018-02-24T16:49:54.453Z,10.40
2018-02-24T16:52:24.318Z,10.30
2018-02-24T16:54:53.450Z,10.30
2018-02-24T16:57:23.323Z,10.47
2018-02-24T16:59:52.442Z,9.40
2018-02-24T17:02:21.596Z,11.43
2018-02-24T17:04:50.762Z,11.80
2018-02-24T17:07:19.855Z,11.13
2018-02-24T17:09:48.982Z,11.53
2018-02-24T17:12:18.119Z,11.70
2018-02-24T17:14:47.218Z,11.60
2018-02-24T17:17:16.375Z,11.40
2018-02-24T17:19:46.243Z,10.67
2018-02-24T17:22:15.380Z,10.37
2018-02-24T17:24:44.497Z,11.03
2018-02-24T17:27:13.630Z,10.30
2018-02-24T17:29:43.013Z,10.00
2018-02-24T17:32:12.116Z,10.60
2018-02-24T17:34:46.276Z,10.30
2018-02-24T17:37:16.156Z,11.30
2018-02-24T17:39:46.067Z,10.27
2018-02-24T17:42:15.189Z,10.80
2018-02-24T17:44:44.337Z,11.33
2018-02-24T17:47:14.456Z,11.07
2018-02-24T17:49:43.562Z,10.20
2018-02-24T17:52:12.683Z,35.70
2018-02-24T17:54:41.818Z,10.33
2018-02-24T17:57:10.926Z,11.47
2018-02-24T17:59:40.055Z,9.67
2018-02-24T18:02:09.930Z,10.30
2018-02-24T18:04:39.104Z,11.70
2018-02-24T18:07:08.213Z,13.00
2018-02-24T18:09:38.090Z,14.60
2018-02-24T18:12:07.235Z,13.00
2018-02-24T18:14:37.115Z,16.10
2018-02-24T18:17:06.246Z,12.80
2018-02-24T18:19:35.357Z,9.90
2018-02-24T18:22:05.270Z,10.87
2018-02-24T18:24:35.445Z,11.00
2018-02-24T18:27:04.580Z,10.97
2018-02-24T18:29:34.443Z,12.20
2018-02-24T18:32:03.579Z,13.77
2018-02-24T18:34:33.435Z,10.57
2018-02-24T18:37:02.541Z,10.60
2018-02-24T18:39:32.471Z,10.67
2018-02-24T18:42:01.582Z,11.07
2018-02-24T18:44:31.519Z,10.00
2018-02-24T18:47:00.616Z,10.33
2018-02-24T18:49:29.743Z,10.13
2018-02-24T18:51:58.846Z,8.47
2018-02-24T18:54:27.988Z,9.17
2018-02-24T18:56:57.127Z,7.90
2018-02-24T18:59:26.243Z,9.53
2018-02-24T19:01:57.073Z,8.83
2018-02-24T19:04:26.193Z,7.47
2018-02-24T19:06:55.328Z,8.50
2018-02-24T19:09:25.217Z,8.57
2018-02-24T19:11:54.323Z,7.17
2018-02-24T19:14:24.237Z,7.80
2018-02-24T19:16:53.305Z,8.97
2018-02-24T19:19:22.412Z,6.87
2018-02-24T19:21:52.474Z,8.27
2018-02-24T19:24:21.572Z,7.83
2018-02-24T19:26:50.712Z,9.83
2018-02-24T19:29:19.817Z,9.20
2018-02-24T19:31:48.930Z,8.00
2018-02-24T19:34:18.802Z,8.70
2018-02-24T19:36:47.938Z,7.50
2018-02-24T19:39:17.041Z,8.10
2018-02-24T19:41:46.926Z,9.63
2018-02-24T19:44:16.031Z,7.53
2018-02-24T19:46:45.156Z,8.60
2018-02-24T19:49:15.061Z,8.27
2018-02-24T19:51:44.903Z,8.40
2018-02-24T19:54:14.019Z,9.27
2018-02-24T19:56:43.145Z,7.60
2018-02-24T19:59:12.264Z,7.90
2018-02-24T20:01:42.146Z,8.20
2018-02-24T20:04:11.267Z,8.90
2018-02-24T20:06:40.526Z,8.00
2018-02-24T20:09:09.632Z,8.60
2018-02-24T20:11:38.754Z,8.00
2018-02-24T20:14:08.658Z,9.13
2018-02-24T20:16:37.781Z,6.73
2018-02-24T20:19:08.135Z,7.87
2018-02-24T20:21:37.250Z,7.97
2018-02-24T20:24:06.392Z,7.30
2018-02-24T20:26:35.506Z,8.07
2018-02-24T20:29:04.628Z,7.27
2018-02-24T20:31:33.750Z,7.07
2018-02-24T20:34:02.883Z,8.43
2018-02-24T20:36:32.773Z,7.77
2018-02-24T20:39:01.913Z,6.00
2018-02-24T20:41:31.782Z,7.10
2018-02-24T20:44:04.310Z,6.50
2018-02-24T20:46:34.227Z,6.70
2018-02-24T20:49:03.316Z,6.40
2018-02-24T20:51:33.318Z,7.30
2018-02-24T20:54:02.450Z,6.37
2018-02-24T20:56:31.585Z,6.53
2018-02-24T20:59:00.699Z,7.37
2018-02-24T21:01:29.816Z,6.30
2018-02-24T21:04:00.402Z,5.80
2018-02-24T21:06:29.539Z,4.90
2018-02-24T21:08:58.674Z,6.60
2018-02-24T21:11:27.803Z,5.80
2018-02-24T21:13:56.918Z,5.87
2018-02-24T21:16:26.841Z,6.17
2018-02-24T21:18:56.732Z,6.40
2018-02-24T21:21:25.819Z,5.00
2018-02-24T21:23:54.972Z,5.80
2018-02-24T21:26:24.090Z,4.97
2018-02-24T21:28:53.217Z,5.70
2018-02-24T21:31:22.344Z,5.37
2018-02-24T21:33:52.227Z,5.07
2018-02-24T21:36:21.328Z,6.13
2018-02-24T21:38:50.486Z,4.47
2018-02-24T21:41:19.594Z,5.60
2018-02-24T21:43:48.702Z,4.90
2018-02-24T21:46:18.616Z,5.40
2018-02-24T21:48:47.739Z,5.40
2018-02-24T21:51:17.662Z,5.80
2018-02-24T21:53:46.844Z,4.40
2018-02-24T21:56:16.548Z,4.77
2018-02-24T21:58:45.691Z,4.77
2018-02-24T22:01:14.790Z,5.60
2018-02-24T22:03:43.922Z,4.83
2018-02-24T22:06:13.969Z,4.83
2018-02-24T22:08:43.793Z,4.10
2018-02-24T22:11:13.660Z,4.43
2018-02-24T22:13:42.768Z,4.97
2018-02-24T22:16:11.882Z,5.10
2018-02-24T22:18:41.008Z,5.30
2018-02-24T22:21:10.892Z,5.53
2018-02-24T22:23:40.001Z,5.90
2018-02-24T22:26:09.115Z,4.53
2018-02-24T22:28:38.982Z,6.40
2018-02-24T22:31:08.113Z,4.63
2018-02-24T22:33:38.279Z,4.97
2018-02-24T22:36:07.403Z,5.50
2018-02-24T22:38:36.487Z,6.00
2018-02-24T22:41:05.617Z,5.40
2018-02-24T22:43:34.727Z,6.13
2018-02-24T22:46:04.613Z,4.77
2018-02-24T23:02:01.090Z,5.30
2018-02-24T23:04:30.193Z,5.80
2018-02-24T23:07:00.176Z,5.93
2018-02-24T23:09:29.264Z,5.40
2018-02-24T23:11:58.379Z,5.53
2018-02-24T23:14:27.469Z,5.70
2018-02-24T23:16:57.346Z,5.80
2018-02-24T23:19:26.429Z,5.70
2018-02-24T23:21:55.563Z,5.77
2018-02-24T23:24:24.641Z,6.60
2018-02-24T23:26:53.732Z,5.53
2018-02-24T23:29:22.854Z,5.43
2018-02-24T23:31:52.730Z,7.10
2018-02-24T23:34:21.862Z,5.97
2018-02-24T23:36:50.985Z,6.00
2018-02-24T23:39:20.082Z,5.80
2018-02-24T23:41:49.233Z,6.27
2018-02-24T23:44:18.590Z,5.67
2018-02-24T23:46:47.678Z,5.63
2018-02-24T23:49:16.798Z,5.13
2018-02-24T23:51:45.895Z,4.83
2018-02-24T23:54:15.016Z,5.23
2018-02-24T23:56:44.968Z,5.90
2018-02-24T23:59:14.064Z,6.20
